Fenelon Falls, Canada
Current Conditions -  °F | °C
As of 1:00 PM on Thursday 30 Oct 2014 (Local Time) from CYPQ Reporting Station
Broken Clouds Broken Clouds  
Wind Chill: 36°   Ceiling: 3200
Heat Index: 43°   Visibility: 9mi
Dew Point: 34°   Wind: 13mph
Humidity: 70%   Direction: 310°NW
Pressure: 30.05"   Gusts: 18mph
Location:  44.53°N, 78.75°W
Report Text: CYPQ 301700Z AUTO 31011G16KT 9SM BKN032 06/01 A3005 RMK SLP182
Loading
Personal Weather Stations






























Interactive Weather Map
Tropical Storm Tracking
New forecast layout! Learn more

10-Day Weather Forecast

Advertisements
Track Severe Weather on mobile